Time;durP1;ratioP1;P1;durP2;ratioP2;P2;SDS_P1;SDS_P2;PMS_P1;PMS_P2;Temp;Humidity;BMP_temperature;BMP_pressure;BME280_temperature;BME280_humidity;BME280_pressure;Samples;Min_cycle;Max_cycle;Signal;HPM_P1;HPM_P2
2021/08/30 00:00:26;;;;;;;11.20;3.07;;;14.30;99.90;;;15.30;100.00;98192.56;5043920;28;20462;-78
2021/08/30 00:02:54;;;;;;;6.23;2.90;;;14.40;99.90;;;15.31;100.00;98196.78;5046333;28;20489;-79
2021/08/30 00:05:24;;;;;;;13.13;2.60;;;14.40;99.90;;;15.29;100.00;98193.56;5045810;28;20538;-78
2021/08/30 00:07:52;;;;;;;7.83;2.80;;;14.40;99.90;;;15.26;100.00;98194.00;5050394;28;20506;-79
2021/08/30 00:10:21;;;;;;;5.90;2.57;;;14.30;99.90;;;15.26;100.00;98194.00;5050665;28;20465;-78
2021/08/30 00:12:49;;;;;;;9.30;2.77;;;14.30;99.90;;;15.28;100.00;98202.50;5050018;28;20510;-78
2021/08/30 00:15:20;;;;;;;4.67;2.47;;;14.40;99.90;;;15.30;100.00;98200.47;5048312;28;20466;-78
2021/08/30 00:17:51;;;;;;;6.30;3.10;;;14.40;99.90;;;15.32;100.00;98195.78;5049410;28;20504;-79
2021/08/30 00:20:22;;;;;;;3.17;2.57;;;14.40;99.90;;;15.28;100.00;98202.50;5040497;28;20465;-79
2021/08/30 00:22:51;;;;;;;5.03;2.50;;;14.30;99.90;;;15.28;100.00;98199.84;5041703;28;20470;-78
2021/08/30 00:25:20;;;;;;;5.80;2.50;;;14.30;99.90;;;15.30;100.00;98200.47;5047988;28;20500;-79
2021/08/30 00:27:48;;;;;;;7.83;2.60;;;14.40;99.90;;;15.31;100.00;98194.16;5043969;28;20903;-78
2021/08/30 00:30:17;;;;;;;5.60;2.83;;;14.40;99.90;;;15.29;100.00;98190.94;5048395;28;20488;-78
2021/08/30 00:32:45;;;;;;;3.27;2.53;;;14.30;99.90;;;15.31;100.00;98191.50;5038193;28;20481;-79
2021/08/30 00:35:15;;;;;;;5.37;2.63;;;14.30;99.90;;;15.33;100.00;98199.22;5044873;28;20505;-78
2021/08/30 00:37:45;;;;;;;5.00;2.80;;;14.40;99.90;;;15.29;100.00;98190.94;5049610;28;21032;-79
2021/08/30 00:40:16;;;;;;;3.13;2.50;;;14.40;99.90;;;15.28;100.00;98191.94;5041689;28;20515;-78
2021/08/30 00:42:45;;;;;;;5.03;2.87;;;14.30;99.90;;;15.31;100.00;98202.06;5041840;28;20796;-78
2021/08/30 00:45:16;;;;;;;4.80;2.90;;;14.30;99.90;;;15.34;100.00;98203.47;5038906;28;20489;-78
2021/08/30 00:47:46;;;;;;;5.60;3.00;;;14.40;99.90;;;15.35;100.00;98202.44;5046808;28;20832;-78
2021/08/30 00:50:17;;;;;;;3.90;2.50;;;14.40;99.90;;;15.37;100.00;98200.41;5039045;28;20510;-78
2021/08/30 00:52:46;;;;;;;3.40;3.10;;;14.40;99.90;;;15.37;100.00;98209.13;5039718;28;20461;-79
2021/08/30 00:55:16;;;;;;;7.53;2.90;;;14.40;99.90;;;15.39;100.00;98204.44;5049962;28;20493;-79
2021/08/30 00:57:45;;;;;;;3.97;2.50;;;14.40;99.90;;;15.38;100.00;98197.56;5052012;28;20886;-79
2021/08/30 01:00:19;;;;;;;3.03;2.73;;;14.40;99.90;;;15.39;100.00;98193.91;5051599;28;20453;-78
2021/08/30 01:02:49;;;;;;;4.17;3.13;;;14.40;99.90;;;15.39;100.00;98193.91;5049803;28;20942;-78
2021/08/30 01:05:22;;;;;;;3.50;3.13;;;14.40;99.90;;;15.38;100.00;98189.66;5044721;28;20528;-78
2021/08/30 01:08:10;;;;;;;4.13;2.93;;;14.40;99.90;;;15.37;100.00;98188.06;5055402;28;20472;-78
2021/08/30 01:10:50;;;;;;;4.10;2.80;;;14.40;99.90;;;15.38;100.00;98187.00;5056577;28;20498;-79
2021/08/30 01:13:30;;;;;;;3.50;2.70;;;14.50;99.90;;;15.38;100.00;98183.56;5040546;28;20476;-78
2021/08/30 01:16:03;;;;;;;6.50;3.10;;;14.50;99.90;;;15.33;100.00;98186.06;5042894;28;20472;-78
2021/08/30 01:18:35;;;;;;;9.33;3.23;;;14.50;99.90;;;15.34;100.00;98185.03;5042760;28;20953;-79
2021/08/30 01:21:19;;;;;;;3.43;3.10;;;14.50;99.90;;;15.32;100.00;98187.06;5053061;28;20875;-79
2021/08/30 01:23:56;;;;;;;3.03;2.70;;;14.40;99.90;;;15.29;100.00;98192.75;5055722;28;20513;-78
2021/08/30 01:26:28;;;;;;;4.10;3.07;;;14.40;99.90;;;15.27;100.00;98190.31;5041377;28;20587;-78
2021/08/30 01:29:07;;;;;;;4.97;3.07;;;14.30;99.90;;;15.25;100.00;98191.56;5042050;28;20527;-79
2021/08/30 01:31:46;;;;;;;4.13;2.87;;;14.40;99.90;;;15.18;100.00;98185.53;5042609;28;20868;-78
2021/08/30 01:34:19;;;;;;;3.27;2.90;;;14.30;99.90;;;15.17;100.00;98194.47;5043451;28;20493;-79
2021/08/30 01:36:49;;;;;;;3.20;2.90;;;14.20;99.90;;;15.16;100.00;98193.66;5047588;28;20468;-78
2021/08/30 01:39:19;;;;;;;9.33;2.97;;;14.20;99.90;;;15.17;100.00;98195.25;5035319;28;20466;-78
2021/08/30 01:41:49;;;;;;;3.43;2.73;;;14.20;99.90;;;15.15;100.00;98197.31;5048032;28;20492;-78
2021/08/30 01:44:19;;;;;;;6.97;3.10;;;14.20;99.90;;;15.10;100.00;98194.50;5047015;28;20457;-78
2021/08/30 01:46:47;;;;;;;4.53;3.40;;;14.10;99.90;;;15.09;100.00;98200.78;5042650;28;20502;-78
2021/08/30 01:49:19;;;;;;;4.23;3.63;;;14.10;99.90;;;15.07;100.00;98193.09;5039711;28;20470;-78
2021/08/30 01:51:49;;;;;;;3.90;3.30;;;14.10;99.90;;;15.06;100.00;98201.22;5056384;28;20829;-78
2021/08/30 01:54:20;;;;;;;9.07;3.23;;;14.10;99.90;;;15.08;100.00;98194.72;5053533;28;20497;-78
2021/08/30 01:56:51;;;;;;;3.60;2.90;;;14.10;99.90;;;15.07;100.00;98193.09;5046002;28;20473;-78
2021/08/30 02:02:10;;;;;;;5.87;3.53;;;14.10;99.90;;;15.06;100.00;98185.41;5047550;28;20465;-78
2021/08/30 02:04:40;;;;;;;14.70;4.07;;;14.20;99.90;;;15.04;100.00;98187.44;5044381;28;20510;-78
2021/08/30 02:07:10;;;;;;;5.17;3.47;;;14.20;99.90;;;15.04;100.00;98182.19;5042900;28;20978;-79
2021/08/30 02:09:38;;;;;;;10.63;3.30;;;14.20;99.90;;;15.05;100.00;98181.16;5053988;28;20449;-78
2021/08/30 02:12:07;;;;;;;9.90;3.20;;;14.20;99.90;;;15.03;100.00;98183.19;5045617;28;20461;-78
2021/08/30 02:14:36;;;;;;;11.00;3.20;;;14.20;99.90;;;15.05;100.00;98183.78;5039973;28;20462;-78
2021/08/30 02:17:12;;;;;;;5.43;3.60;;;14.20;99.90;;;15.06;100.00;98198.59;5045418;28;20493;-78
2021/08/30 02:19:50;;;;;;;4.73;3.10;;;14.20;99.90;;;15.05;100.00;98202.22;5040307;28;20530;-78
2021/08/30 02:22:28;;;;;;;9.13;3.30;;;14.30;99.90;;;15.06;100.00;98209.91;5045123;28;20457;-79
2021/08/30 02:25:04;;;;;;;4.23;3.80;;;14.30;99.90;;;15.07;100.00;98200.19;5039057;28;20585;-78
2021/08/30 02:27:42;;;;;;;8.60;3.90;;;14.20;99.90;;;15.07;100.00;98208.91;5041147;28;20469;-78
2021/08/30 02:30:17;;;;;;;7.03;3.90;;;14.20;99.90;;;15.09;100.00;98211.34;5052264;28;20468;-78
2021/08/30 02:32:49;;;;;;;5.93;3.93;;;14.20;99.90;;;15.11;100.00;98223.25;5044374;28;20497;-78
2021/08/30 02:35:29;;;;;;;5.53;4.20;;;14.20;99.90;;;15.10;100.00;98220.84;5038621;28;20524;-78
2021/08/30 02:38:00;;;;;;;9.50;5.10;;;14.30;99.90;;;15.11;100.00;98211.91;5036743;28;20466;-79
2021/08/30 02:40:30;;;;;;;9.17;5.13;;;14.30;99.90;;;15.10;100.00;98212.94;5042758;28;20890;-78
2021/08/30 02:43:02;;;;;;;11.07;5.13;;;14.30;99.90;;;15.13;100.00;98215.16;5049007;28;20456;-79
2021/08/30 02:45:31;;;;;;;8.47;4.93;;;14.40;99.90;;;15.14;100.00;98206.22;5039019;28;20786;-79
2021/08/30 02:48:04;;;;;;;9.60;5.17;;;14.30;99.90;;;15.16;100.00;98204.19;5043142;28;20472;-78
2021/08/30 02:50:35;;;;;;;6.60;5.07;;;14.40;99.90;;;15.20;100.00;98207.22;5043656;28;20464;-78
2021/08/30 02:53:06;;;;;;;11.30;4.93;;;14.40;99.90;;;15.22;100.00;98203.34;5047537;28;20461;-78
2021/08/30 02:55:35;;;;;;;7.00;5.03;;;14.40;99.90;;;15.25;100.00;98202.91;5041254;28;20499;-78
2021/08/30 02:58:05;;;;;;;18.00;5.90;;;14.50;99.90;;;15.27;100.00;98205.34;5045044;28;20516;-78
2021/08/30 03:00:35;;;;;;;11.90;5.50;;;14.50;99.90;;;15.29;100.00;98200.66;5039814;28;20962;-79
2021/08/30 03:03:04;;;;;;;9.30;6.00;;;14.50;99.90;;;15.30;100.00;98205.72;5044570;28;20847;-78
2021/08/30 03:05:38;;;;;;;7.10;5.20;;;14.50;99.90;;;15.32;100.00;98211.59;5045252;28;20986;-78
2021/08/30 03:08:07;;;;;;;20.90;6.43;;;14.60;99.90;;;15.34;100.00;98212.16;5038301;28;21620;-78
2021/08/30 03:10:38;;;;;;;11.20;6.83;;;14.60;99.90;;;15.33;100.00;98205.31;5041840;28;20470;-79
2021/08/30 03:13:07;;;;;;;12.27;7.50;;;14.60;99.90;;;15.34;100.00;98204.25;5049472;28;20465;-79
2021/08/30 03:15:36;;;;;;;9.40;6.60;;;14.60;99.90;;;15.36;100.00;98199.59;5046674;28;20503;-78
2021/08/30 03:18:12;;;;;;;11.60;7.13;;;14.60;99.90;;;15.38;100.00;98189.66;5048523;28;20575;-78
2021/08/30 03:20:43;;;;;;;13.23;8.00;;;14.60;99.90;;;15.38;100.00;98194.91;5060447;28;20527;-78
2021/08/30 03:23:13;;;;;;;10.97;6.20;;;14.70;99.90;;;15.39;100.00;98187.81;5054837;28;20968;-79
2021/08/30 03:25:43;;;;;;;11.00;7.07;;;14.80;99.90;;;15.41;100.00;98191.06;5040295;28;20933;-79
2021/08/30 03:28:13;;;;;;;11.70;7.60;;;14.80;99.90;;;15.40;100.00;98192.09;5041592;28;20557;-78
2021/08/30 03:30:42;;;;;;;15.63;7.33;;;14.70;99.90;;;15.41;100.00;98199.75;5050368;28;20469;-78
2021/08/30 03:33:12;;;;;;;25.60;7.20;;;14.70;99.90;;;15.43;100.00;98200.38;5051731;28;20448;-79
2021/08/30 03:35:43;;;;;;;12.43;7.60;;;14.80;99.90;;;15.41;100.00;98206.88;5068743;28;20444;-78
2021/08/30 03:38:13;;;;;;;11.93;7.30;;;14.70;99.90;;;15.41;100.00;98202.38;5050414;28;20466;-78
2021/08/30 03:40:43;;;;;;;18.53;10.23;;;14.80;99.90;;;15.42;100.00;98204.00;5045623;28;20481;-78
2021/08/30 03:43:12;;;;;;;15.13;8.00;;;14.80;99.90;;;15.44;100.00;98209.91;5046815;28;21066;-79
2021/08/30 03:45:41;;;;;;;11.87;8.20;;;14.90;99.90;;;15.45;100.00;98198.31;5044538;28;20575;-78
2021/08/30 03:48:10;;;;;;;13.20;8.50;;;14.90;99.90;;;15.49;100.00;98207.44;5049408;28;20461;-79
2021/08/30 03:50:45;;;;;;;13.57;9.57;;;14.90;99.90;;;15.48;100.00;98208.44;5043479;28;20507;-77
2021/08/30 03:53:14;;;;;;;15.20;8.43;;;14.90;99.90;;;15.50;100.00;98198.53;5046675;28;20953;-78
2021/08/30 03:55:43;;;;;;;13.50;7.80;;;14.90;99.90;;;15.52;100.00;98204.38;5047736;28;20518;-78
2021/08/30 03:58:16;;;;;;;14.03;7.83;;;14.90;99.90;;;15.52;100.00;98196.47;5059704;28;20948;-78
2021/08/30 04:00:45;;;;;;;13.07;7.90;;;14.90;99.90;;;15.55;100.00;98208.41;5057408;28;20449;-78
2021/08/30 04:03:14;;;;;;;10.57;7.67;;;14.90;99.90;;;15.55;100.00;98209.22;5065031;28;20476;-78
2021/08/30 04:05:48;;;;;;;9.33;7.50;;;14.90;99.90;;;15.57;100.00;98212.47;5050848;28;20500;-78
2021/08/30 04:08:17;;;;;;;11.43;7.70;;;15.00;99.90;;;15.55;100.00;98214.47;5060084;28;20917;-78
2021/08/30 04:10:47;;;;;;;13.13;8.07;;;14.90;99.90;;;15.59;100.00;98220.13;5052818;28;20460;-78
2021/08/30 04:13:15;;;;;;;10.63;7.20;;;14.90;99.90;;;15.58;100.00;98214.06;5060683;28;20449;-78
2021/08/30 04:15:44;;;;;;;12.87;8.40;;;14.90;99.90;;;15.59;100.00;98214.88;5061589;28;20461;-78
2021/08/30 04:18:13;;;;;;;14.33;9.10;;;15.00;99.90;;;15.62;100.00;98218.91;5061358;28;20458;-78
2021/08/30 04:20:41;;;;;;;14.97;8.43;;;15.00;99.90;;;15.63;100.00;98212.59;5056429;28;20448;-78
2021/08/30 04:23:11;;;;;;;11.97;8.50;;;14.90;99.90;;;15.65;100.00;98214.03;5059917;28;21002;-78
2021/08/30 04:25:40;;;;;;;14.87;8.90;;;15.00;99.90;;;15.66;100.00;98214.81;5057043;28;20507;-78
2021/08/30 04:28:08;;;;;;;12.30;8.00;;;15.00;99.90;;;15.67;100.00;98211.16;5046931;28;20850;-78
2021/08/30 04:30:38;;;;;;;14.63;10.37;;;15.00;99.90;;;15.67;100.00;98208.53;5049248;28;20465;-77
2021/08/30 04:33:10;;;;;;;14.47;9.10;;;15.00;99.90;;;15.67;100.00;98217.25;5052175;28;20468;-78
2021/08/30 04:35:39;;;;;;;14.53;8.77;;;15.00;99.90;;;15.69;100.00;98224.94;5040984;28;20567;-77
2021/08/30 04:38:09;;;;;;;13.17;9.57;;;15.00;99.90;;;15.69;100.00;98217.03;5045468;28;20855;-78
2021/08/30 04:40:39;;;;;;;17.70;8.50;;;15.00;99.90;;;15.70;100.00;98221.28;5052362;28;20995;-78
2021/08/30 04:43:09;;;;;;;13.67;8.20;;;15.00;99.90;;;15.72;100.00;98229.78;5052296;28;20457;-77
2021/08/30 04:45:39;;;;;;;15.43;8.63;;;15.00;99.90;;;15.70;100.00;98226.53;5045531;28;20442;-77
2021/08/30 04:48:08;;;;;;;14.13;8.70;;;15.10;99.90;;;15.71;100.00;98228.97;5043341;28;20536;-77
2021/08/30 04:50:37;;;;;;;13.40;9.33;;;15.00;99.90;;;15.69;100.00;98224.94;5054092;28;20456;-77
2021/08/30 04:53:05;;;;;;;14.70;9.73;;;15.00;99.90;;;15.72;100.00;98229.78;5058130;28;20514;-78
2021/08/30 04:55:34;;;;;;;63.30;32.90;;;15.00;99.90;;;15.73;100.00;98221.66;5049715;28;20453;-81
2021/08/30 04:58:07;;;;;;;53.37;29.33;;;15.00;99.90;;;15.74;100.00;98225.91;5040827;28;20461;-78
2021/08/30 05:00:36;;;;;;;14.60;9.80;;;15.00;99.90;;;15.74;100.00;98228.53;5034818;28;20524;-79
2021/08/30 05:03:05;;;;;;;16.90;9.10;;;15.10;99.90;;;15.75;100.00;98224.09;5029008;28;20477;-78
2021/08/30 05:05:33;;;;;;;17.07;10.27;;;15.10;99.90;;;15.72;100.00;98222.69;5039147;28;20953;-78
2021/08/30 05:08:02;;;;;;;21.77;10.20;;;15.10;99.90;;;15.75;100.00;98224.09;5047113;28;21041;-79
2021/08/30 05:10:31;;;;;;;18.90;10.37;;;15.10;99.90;;;15.71;100.00;98221.06;5042445;28;20511;-79
2021/08/30 05:12:59;;;;;;;174.87;123.67;;;15.10;99.90;;;15.72;100.00;98224.53;5038785;28;20472;-79
2021/08/30 05:15:29;;;;;;;33.13;14.80;;;15.10;99.90;;;15.72;100.00;98227.97;5045583;28;20465;-78
2021/08/30 05:17:57;;;;;;;15.90;10.33;;;15.10;99.90;;;15.74;100.00;98233.00;5037087;28;20465;-78
2021/08/30 05:20:26;;;;;;;21.37;13.20;;;15.20;99.90;;;15.69;100.00;98231.00;5032471;28;20527;-79
2021/08/30 05:22:54;;;;;;;12.90;10.00;;;15.10;99.90;;;15.70;100.00;98237.09;5044416;28;20445;-79
2021/08/30 05:25:23;;;;;;;17.73;10.40;;;15.20;99.90;;;15.72;100.00;98237.69;5046767;28;20871;-79
2021/08/30 05:27:52;;;;;;;11.80;9.07;;;15.10;99.90;;;15.71;100.00;98239.53;5040288;28;20493;-79
2021/08/30 05:30:21;;;;;;;15.30;10.10;;;15.20;99.90;;;15.73;100.00;98252.47;5050369;28;20464;-79
2021/08/30 05:32:51;;;;;;;13.40;9.37;;;15.10;99.90;;;15.74;100.00;98244.38;5048177;28;20473;-78
2021/08/30 05:35:20;;;;;;;17.13;10.90;;;15.10;99.90;;;15.75;100.00;98246.00;5052972;28;20519;-79
2021/08/30 05:37:48;;;;;;;15.20;9.90;;;15.10;99.90;;;15.78;100.00;98239.47;5042537;28;20458;-78
2021/08/30 05:40:17;;;;;;;26.23;10.17;;;15.20;99.90;;;15.80;100.00;98237.41;5043960;28;20499;-79
2021/08/30 05:42:45;;;;;;;15.87;10.63;;;15.20;99.90;;;15.82;100.00;98230.13;5056812;28;20481;-79
2021/08/30 05:45:14;;;;;;;14.23;9.90;;;15.10;99.90;;;15.84;100.00;98234.16;5053656;28;20499;-79
2021/08/30 05:47:42;;;;;;;15.00;10.23;;;15.20;99.90;;;15.88;100.00;98235.31;5047797;28;20543;-79
2021/08/30 05:50:12;;;;;;;13.83;9.20;;;15.30;99.90;;;15.85;100.00;98234.94;5060233;28;20506;-79
2021/08/30 05:52:41;;;;;;;15.60;11.00;;;15.30;99.90;;;15.82;100.00;98224.84;5056324;28;20514;-79
2021/08/30 05:55:11;;;;;;;23.63;10.97;;;15.30;99.90;;;15.82;100.00;98230.13;5059592;28;20513;-78
2021/08/30 05:57:39;;;;;;;24.40;10.30;;;15.30;99.90;;;15.80;100.00;98238.22;5053566;28;20961;-79
2021/08/30 06:00:09;;;;;;;17.97;11.40;;;15.30;99.90;;;15.82;100.00;98251.22;5054183;28;20453;-79
2021/08/30 06:02:38;;;;;;;17.37;11.53;;;15.30;99.90;;;15.85;100.00;98245.50;5053373;28;20465;-79
2021/08/30 06:05:08;;;;;;;15.60;10.30;;;15.30;99.90;;;15.84;100.00;98249.16;5062773;28;20468;-79
2021/08/30 06:07:39;;;;;;;15.67;10.77;;;15.20;99.90;;;15.84;100.00;98249.16;5054476;28;20488;-79
2021/08/30 06:10:09;;;;;;;14.77;11.37;;;15.20;99.90;;;15.89;100.00;98249.31;5052797;28;20441;-79
2021/08/30 06:12:39;;;;;;;17.57;10.90;;;15.30;99.90;;;15.86;100.00;98252.41;5052630;28;20944;-79
2021/08/30 06:15:09;;;;;;;16.50;11.27;;;15.30;99.90;;;15.86;100.00;98247.91;5051464;28;20859;-79
2021/08/30 06:17:38;;;;;;;16.07;11.13;;;15.20;99.90;;;15.92;100.00;98247.06;5053738;28;20499;-79
2021/08/30 06:20:08;;;;;;;17.30;10.83;;;15.30;99.90;;;15.95;100.00;98243.19;5044588;28;20542;-79
2021/08/30 06:22:38;;;;;;;20.70;10.90;;;15.30;99.90;;;15.96;100.00;98236.88;5054423;28;20448;-79
2021/08/30 06:25:08;;;;;;;16.83;10.50;;;15.40;99.90;;;15.99;100.00;98236.47;5053644;28;20554;-79
2021/08/30 06:27:56;;;;;;;17.17;11.23;;;15.40;99.90;;;15.99;100.00;98247.00;5044836;28;20598;-79
2021/08/30 06:30:25;;;;;;;13.20;10.53;;;15.40;99.90;;;16.00;100.00;98243.34;5053435;28;20457;-79
2021/08/30 06:32:53;;;;;;;20.07;11.80;;;15.40;99.90;;;16.06;100.00;98248.56;5052953;28;20457;-79
2021/08/30 06:35:22;;;;;;;18.50;11.87;;;15.50;99.90;;;16.05;100.00;98246.13;5053583;28;20453;-79
2021/08/30 06:37:52;;;;;;;19.03;10.10;;;15.40;99.90;;;16.10;100.00;98247.09;5053300;28;20492;-79
2021/08/30 06:40:23;;;;;;;17.97;11.57;;;15.50;99.90;;;16.15;100.00;98246.44;5055446;28;20450;-79
2021/08/30 06:42:53;;;;;;;21.63;12.40;;;15.50;99.90;;;16.15;100.00;98253.56;5052871;28;20503;-79
2021/08/30 06:45:23;;;;;;;18.50;11.50;;;15.50;99.90;;;16.14;100.00;98257.22;5051785;28;20492;-79
2021/08/30 06:47:52;;;;;;;17.90;11.10;;;15.50;99.90;;;16.15;100.00;98243.81;5052450;28;20489;-79
2021/08/30 06:50:21;;;;;;;16.93;11.73;;;15.60;99.90;;;16.15;100.00;98248.28;5047059;28;20518;-79
2021/08/30 06:52:49;;;;;;;17.33;11.97;;;15.60;99.90;;;16.14;100.00;98254.59;5047681;28;20451;-79
2021/08/30 06:55:20;;;;;;;15.40;11.60;;;15.50;99.90;;;16.16;100.00;98247.25;5050457;28;20466;-79
2021/08/30 06:57:48;;;;;;;20.97;11.53;;;15.50;99.90;;;16.21;100.00;98244.78;5052081;28;20508;-78
2021/08/30 07:00:18;;;;;;;15.70;11.03;;;15.60;99.90;;;16.20;100.00;98253.72;5052382;28;20445;-79
2021/08/30 07:02:47;;;;;;;32.23;11.60;;;15.60;99.90;;;16.16;100.00;98257.81;5053496;28;20468;-79
2021/08/30 07:05:16;;;;;;;19.00;11.40;;;15.50;99.90;;;16.17;100.00;98254.97;5052708;28;20441;-78
2021/08/30 07:07:44;;;;;;;18.60;11.00;;;15.60;99.90;;;16.18;100.00;98253.91;5054631;28;20496;-79
2021/08/30 07:10:13;;;;;;;14.80;11.00;;;15.50;99.90;;;16.22;100.00;98249.81;5055486;28;20804;-79
2021/08/30 07:12:43;;;;;;;19.20;12.20;;;15.60;99.90;;;16.24;100.00;98250.44;5057484;28;20445;-79
2021/08/30 07:15:13;;;;;;;19.67;11.90;;;15.70;99.90;;;16.26;100.00;98253.66;5052464;28;20477;-79
2021/08/30 07:17:41;;;;;;;15.50;11.20;;;15.60;99.90;;;16.28;100.00;98261.38;5057361;28;20846;-79
2021/08/30 07:20:11;;;;;;;16.87;11.90;;;15.70;99.90;;;16.31;100.00;98261.75;5059150;28;20445;-79
2021/08/30 07:22:39;;;;;;;15.67;11.53;;;15.80;99.90;;;16.28;100.00;98262.16;5056458;28;20441;-79
2021/08/30 07:25:09;;;;;;;22.03;11.53;;;15.70;99.90;;;16.24;100.00;98254.91;5056357;28;21007;-79
2021/08/30 07:27:38;;;;;;;21.20;11.70;;;15.70;99.90;;;16.24;100.00;98263.63;5054721;28;20541;-79
2021/08/30 07:30:09;;;;;;;13.50;10.97;;;15.70;99.90;;;16.24;100.00;98257.53;5056579;28;20487;-79
2021/08/30 07:32:38;;;;;;;15.37;10.37;;;15.70;99.90;;;16.29;100.00;98255.84;5047032;28;20460;-79
2021/08/30 07:35:07;;;;;;;20.90;12.33;;;15.70;99.90;;;16.31;100.00;98260.94;5057815;28;20448;-79
2021/08/30 07:37:36;;;;;;;18.83;11.30;;;15.60;99.90;;;16.32;100.00;98263.34;5055727;28;20453;-79
2021/08/30 07:40:07;;;;;;;18.37;11.50;;;15.70;99.90;;;16.37;100.00;98263.50;5056926;28;20447;-79
2021/08/30 07:42:36;;;;;;;22.10;11.40;;;15.70;99.90;;;16.41;100.00;98262.03;5055809;28;20460;-79
2021/08/30 07:45:08;;;;;;;15.27;10.90;;;15.80;99.90;;;16.48;100.00;98268.06;5056364;28;21011;-79
2021/08/30 07:47:36;;;;;;;15.03;11.20;;;15.80;99.90;;;16.48;100.00;98270.69;5050367;28;20937;-79
2021/08/30 07:50:06;;;;;;;15.13;10.33;;;15.80;99.90;;;16.55;100.00;98274.13;5050251;28;20964;-79
2021/08/30 07:52:34;;;;;;;17.50;11.17;;;16.00;99.90;;;16.60;100.00;98268.97;5053600;28;20445;-79
2021/08/30 07:55:04;;;;;;;17.80;10.10;;;16.00;99.90;;;16.64;100.00;98276.44;5053798;28;20816;-79
2021/08/30 07:57:32;;;;;;;14.30;11.10;;;16.00;99.90;;;16.65;100.00;98263.03;5053511;28;20453;-79
2021/08/30 08:00:01;;;;;;;16.50;11.40;;;16.00;99.90;;;16.71;100.00;98277.19;5053581;28;20458;-79
2021/08/30 08:02:31;;;;;;;16.30;10.40;;;16.10;99.90;;;16.74;100.00;98276.72;5050801;28;20542;-79
2021/08/30 08:05:00;;;;;;;12.70;9.70;;;16.10;99.90;;;16.77;100.00;98268.38;5054575;28;20453;-79
2021/08/30 08:07:28;;;;;;;16.57;11.43;;;16.20;99.90;;;16.79;100.00;98272.41;5055999;28;20510;-79
2021/08/30 08:09:57;;;;;;;14.60;11.07;;;16.30;99.90;;;16.78;100.00;98275.28;5045549;28;20500;-79
2021/08/30 08:12:25;;;;;;;14.77;10.40;;;16.20;99.90;;;16.85;100.00;98274.16;5055179;28;20461;-79
2021/08/30 08:14:54;;;;;;;14.90;10.50;;;16.30;99.90;;;16.92;100.00;98282.81;5054375;28;20469;-79
2021/08/30 08:17:22;;;;;;;12.60;9.80;;;16.30;99.90;;;16.97;100.00;98272.38;5057561;28;20456;-79
2021/08/30 08:19:52;;;;;;;16.90;10.43;;;16.40;99.90;;;16.98;100.00;98283.75;5054881;28;20511;-79
2021/08/30 08:22:21;;;;;;;14.97;10.37;;;16.40;99.90;;;17.05;100.00;98289.78;5055305;28;20511;-79
2021/08/30 08:24:49;;;;;;;16.47;9.80;;;16.40;99.90;;;17.02;100.00;98284.94;5055390;28;20445;-79
2021/08/30 08:27:18;;;;;;;12.50;9.20;;;16.40;99.90;;;17.07;100.00;98283.25;5057113;28;20508;-79
2021/08/30 08:29:46;;;;;;;13.30;9.93;;;16.50;99.90;;;17.10;100.00;98287.28;5055276;28;20497;-79
2021/08/30 08:32:15;;;;;;;18.07;11.77;;;16.50;99.90;;;17.15;100.00;98284.78;5057918;28;20453;-79
2021/08/30 08:34:43;;;;;;;14.93;9.63;;;16.50;99.90;;;17.20;100.00;98286.75;5053961;28;20461;-79
2021/08/30 08:37:13;;;;;;;19.70;9.53;;;16.60;99.90;;;17.16;100.00;98290.88;5057377;28;20442;-79
2021/08/30 08:39:42;;;;;;;13.07;9.23;;;16.50;99.90;;;17.18;100.00;98294.09;5054259;28;20464;-79
2021/08/30 08:42:10;;;;;;;20.07;10.50;;;16.60;99.90;;;17.19;100.00;98296.50;5056341;28;20449;-79
2021/08/30 08:44:39;;;;;;;13.97;9.90;;;16.60;99.90;;;17.18;100.00;98294.88;5057025;28;20778;-79
2021/08/30 08:47:09;;;;;;;13.57;8.70;;;16.60;99.90;;;17.19;100.00;98295.69;5052301;28;20503;-79
2021/08/30 08:49:39;;;;;;;15.20;9.77;;;16.60;99.90;;;17.20;100.00;98287.56;5049007;28;20551;-79
2021/08/30 08:52:08;;;;;;;10.80;8.83;;;16.60;99.90;;;17.22;100.00;98293.41;5051342;28;20453;-79
2021/08/30 08:54:57;;;;;;;12.43;9.20;;;16.70;99.90;;;17.25;100.00;98295.63;5052777;28;20453;-79
2021/08/30 08:57:26;;;;;;;15.47;9.50;;;16.60;99.90;;;17.27;100.00;98293.56;5054564;28;20457;-79
2021/08/30 08:59:59;;;;;;;16.23;8.90;;;16.70;99.90;;;17.33;100.00;98292.66;5055353;28;20449;-79
2021/08/30 09:02:30;;;;;;;16.27;9.43;;;16.80;99.90;;;17.29;100.00;98296.78;5053414;28;20469;-78
2021/08/30 09:05:00;;;;;;;22.23;10.17;;;16.70;99.90;;;17.35;100.00;98301.19;5055181;28;20449;-79
2021/08/30 09:07:35;;;;;;;15.43;10.10;;;16.80;99.90;;;17.38;100.00;98297.28;5055363;28;20441;-79
2021/08/30 09:10:11;;;;;;;12.07;8.97;;;16.80;99.90;;;17.38;100.00;98300.75;5054009;28;20550;-79
2021/08/30 09:12:42;;;;;;;19.60;9.90;;;16.80;99.90;;;17.46;100.00;98310.19;5054244;28;20447;-79
2021/08/30 09:15:15;;;;;;;16.37;9.70;;;16.90;99.90;;;17.53;100.00;98308.25;5053686;28;20449;-79
2021/08/30 09:17:51;;;;;;;19.43;9.27;;;16.90;99.90;;;17.56;100.00;98308.66;5055739;28;20457;-79
2021/08/30 09:20:22;;;;;;;11.27;8.17;;;17.00;99.90;;;17.66;100.00;98302.03;5050562;28;20453;-79
2021/08/30 09:22:52;;;;;;;12.57;9.10;;;17.00;99.90;;;17.72;100.00;98301.13;5053870;28;20445;-79
2021/08/30 09:25:22;;;;;;;12.33;8.80;;;17.10;99.90;;;17.77;100.00;98309.97;5053638;28;20519;-79
2021/08/30 09:27:52;;;;;;;15.57;9.67;;;17.10;99.90;;;17.80;100.00;98298.97;5053656;28;20442;-79
2021/08/30 09:30:28;;;;;;;15.90;9.23;;;17.20;99.90;;;17.83;100.00;98308.28;5054916;28;20492;-79
2021/08/30 09:32:57;;;;;;;12.93;9.17;;;17.30;99.90;;;17.82;100.00;98314.59;5054299;28;20854;-79
2021/08/30 09:35:27;;;;;;;14.43;9.77;;;17.20;99.90;;;17.86;100.00;98302.53;5055151;28;20519;-79
2021/08/30 09:37:56;;;;;;;17.53;8.50;;;17.30;99.90;;;17.82;100.00;98307.47;5053752;28;20449;-79
2021/08/30 09:40:27;;;;;;;13.13;9.80;;;17.20;99.90;;;17.90;100.00;98311.63;5054983;28;20445;-79
2021/08/30 09:42:58;;;;;;;17.00;9.57;;;17.20;99.90;;;17.96;100.00;98308.06;5045536;28;20508;-79
2021/08/30 09:45:29;;;;;;;14.10;9.63;;;17.30;99.90;;;17.97;100.00;98310.50;5053745;28;20449;-80
2021/08/30 09:48:00;;;;;;;14.20;9.10;;;17.30;99.90;;;17.97;100.00;98326.38;5050237;28;20515;-79
2021/08/30 09:50:31;;;;;;;11.47;8.50;;;17.40;99.90;;;17.91;100.00;98310.59;5051333;28;20907;-79
2021/08/30 09:53:03;;;;;;;17.67;9.93;;;17.40;99.90;;;17.92;100.00;98312.19;5052145;28;20456;-79
2021/08/30 09:55:35;;;;;;;14.00;9.47;;;17.30;99.90;;;17.96;100.00;98308.06;5051815;28;21010;-79
2021/08/30 09:58:05;;;;;;;14.03;9.47;;;17.30;99.90;;;17.99;100.00;98318.19;5053217;28;20448;-79
2021/08/30 10:00:36;;;;;;;15.80;9.57;;;17.30;99.90;;;18.03;100.00;98308.78;5050270;28;20453;-79
2021/08/30 10:03:07;;;;;;;16.40;10.03;;;17.40;99.90;;;18.04;100.00;98310.38;5052963;28;20825;-79
2021/08/30 10:05:37;;;;;;;12.80;10.33;;;17.40;99.90;;;18.00;100.00;98304.75;5053979;28;20879;-79
2021/08/30 10:08:06;;;;;;;13.17;9.70;;;17.50;99.90;;;18.03;100.00;98304.28;5053708;28;20479;-79
2021/08/30 10:10:36;;;;;;;10.97;8.50;;;17.40;99.90;;;18.01;100.00;98301.03;5051680;28;20489;-79
2021/08/30 10:13:06;;;;;;;11.80;8.37;;;17.30;99.90;;;18.09;100.00;98307.84;5052091;28;20453;-79
2021/08/30 10:15:35;;;;;;;18.60;9.50;;;17.40;99.90;;;18.15;100.00;98295.56;5052286;28;20441;-79
2021/08/30 10:18:04;;;;;;;13.60;9.63;;;17.60;99.90;;;18.22;100.00;98296.25;5051381;28;20575;-79
2021/08/30 10:20:34;;;;;;;12.80;9.10;;;17.60;99.90;;;18.21;100.00;98298.09;5054377;28;20449;-79